Time;durP1;ratioP1;P1;durP2;ratioP2;P2;SDS_P1;SDS_P2;PMS_P1;PMS_P2;Temp;Humidity;BMP_temperature;BMP_pressure;BME280_temperature;BME280_humidity;BME280_pressure;Samples;Min_cycle;Max_cycle;Signal;HPM_P1;HPM_P2
2021/11/30 00:01:19;;;;;;;;;;;;;;;4.16;59.41;98859.94;4411367;32;20016;-88
2021/11/30 00:03:44;;;;;;;;;;;;;;;4.14;59.41;98852.25;4411103;32;22371;-87
2021/11/30 00:06:10;;;;;;;;;;;;;;;4.20;59.41;98865.00;4411482;32;20023;-86
2021/11/30 00:08:36;;;;;;;;;;;;;;;4.31;59.42;98864.78;4411375;32;20057;-87
2021/11/30 00:11:02;;;;;;;;;;;;;;;4.34;59.41;98869.03;4411877;32;19962;-86
2021/11/30 00:13:27;;;;;;;;;;;;;;;4.26;59.41;98871.75;4412150;32;19969;-89
2021/11/30 00:15:53;;;;;;;;;;;;;;;4.23;59.41;98871.81;4411518;32;20048;-85
2021/11/30 00:18:18;;;;;;;;;;;;;;;4.07;59.40;98880.72;4411538;32;20343;-86
2021/11/30 00:20:44;;;;;;;;;;;;;;;4.10;59.40;98884.09;4411505;32;20709;-86
2021/11/30 00:23:09;;;;;;;;;;;;;;;4.00;59.40;98888.56;4411511;32;20000;-88
2021/11/30 00:25:34;;;;;;;;;;;;;;;3.97;59.39;98901.50;4411940;32;20461;-89
2021/11/30 00:28:00;;;;;;;;;;;;;;;3.93;59.39;98888.72;4413246;32;20005;-91
2021/11/30 00:30:25;;;;;;;;;;;;;;;4.00;59.40;98888.56;4411992;32;19997;-90
2021/11/30 00:32:50;;;;;;;;;;;;;;;3.86;59.39;98894.88;4411512;32;19977;-88
2021/11/30 00:35:15;;;;;;;;;;;;;;;4.01;59.40;98895.41;4411630;32;19982;-90
2021/11/30 00:37:41;;;;;;;;;;;;;;;4.04;59.40;98899.66;4411971;32;19989;-89
2021/11/30 00:40:06;;;;;;;;;;;;;;;3.97;59.39;98893.78;4411135;32;24290;-88
2021/11/30 00:42:31;;;;;;;;;;;;;;;3.91;59.40;98899.03;4411773;32;20015;-89
2021/11/30 00:45:00;;;;;;;;;;;;;;;3.86;59.39;98902.59;4412274;32;19986;-89
2021/11/30 00:47:30;;;;;;;;;;;;;;;3.87;59.39;98902.56;4412139;32;20003;-88
2021/11/30 00:49:55;;;;;;;;;;;;;;;3.81;59.38;98906.97;4412000;32;19973;-89
2021/11/30 00:52:21;;;;;;;;;;;;;;;3.76;59.39;98917.31;4411560;32;19973;-89
2021/11/30 00:54:47;;;;;;;;;;;;;;;3.75;59.38;98925.09;4411245;32;19985;-89
2021/11/30 00:57:13;;;;;;;;;;;;;;;3.64;59.38;98926.13;4407818;32;20322;-89
2021/11/30 00:59:38;;;;;;;;;;;;;;;3.77;59.39;98924.19;4408923;32;19993;-88
2021/11/30 01:02:03;;;;;;;;;;;;;;;3.92;59.40;98933.34;4409292;32;20297;-89
2021/11/30 01:04:28;;;;;;;;;;;;;;;3.93;59.40;98932.47;4408657;32;21805;-90
2021/11/30 01:06:54;;;;;;;;;;;;;;;3.97;59.41;98929.81;4408840;32;20034;-88
2021/11/30 01:09:19;;;;;;;;;;;;;;;4.06;59.41;98933.13;4408773;32;20005;-89
2021/11/30 01:11:44;;;;;;;;;;;;;;;4.11;59.40;98937.28;4408577;32;19982;-90
2021/11/30 01:14:09;;;;;;;;;;;;;;;4.11;59.40;98936.44;4409062;32;20255;-90
2021/11/30 01:16:35;;;;;;;;;;;;;;;4.10;59.40;98937.31;4409030;32;20988;-90
2021/11/30 01:19:01;;;;;;;;;;;;;;;4.13;59.41;98939.84;4409598;32;20338;-90
2021/11/30 01:21:26;;;;;;;;;;;;;;;4.04;59.40;98937.44;4408948;32;19987;-89
2021/11/30 01:23:51;;;;;;;;;;;;;;;4.03;59.40;98941.75;4408626;32;19978;-89
2021/11/30 01:26:16;;;;;;;;;;;;;;;3.96;59.40;98945.28;4408128;32;20905;-89
2021/11/30 01:28:41;;;;;;;;;;;;;;;3.97;59.41;98932.38;4408642;32;20041;-90
2021/11/30 01:31:07;;;;;;;;;;;;;;;3.90;59.40;98930.81;4395870;32;20331;-89
2021/11/30 01:33:35;;;;;;;;;;;;;;;3.78;59.39;98925.87;4409569;32;20036;-90
2021/11/30 01:36:00;;;;;;;;;;;;;;;3.57;59.37;98934.00;4409260;32;20081;-90
2021/11/30 01:38:27;;;;;;;;;;;;;;;3.70;59.39;98933.75;4408278;32;20307;-89
2021/11/30 01:40:52;;;;;;;;;;;;;;;3.63;59.38;98936.47;4408597;32;19973;-90
2021/11/30 01:43:22;;;;;;;;;;;;;;;3.50;59.37;98935.78;4408779;32;20004;-89
2021/11/30 01:45:58;;;;;;;;;;;;;;;3.49;59.37;98933.25;4398541;32;20386;-90
2021/11/30 01:50:48;;;;;;;;;;;;;;;3.29;59.36;98949.84;4412262;32;19970;-90
2021/11/30 01:53:14;;;;;;;;;;;;;;;3.34;59.36;98953.22;4410513;32;20088;-89
2021/11/30 01:55:39;;;;;;;;;;;;;;;3.41;59.37;98961.69;4410278;32;20009;-89
2021/11/30 01:58:04;;;;;;;;;;;;;;;3.40;59.37;98949.69;4420072;32;20334;-90
2021/11/30 02:00:31;;;;;;;;;;;;;;;3.62;59.38;98947.63;4412935;32;19986;-89
2021/11/30 02:02:56;;;;;;;;;;;;;;;3.47;59.37;98956.44;4412926;32;20049;-89
2021/11/30 02:05:21;;;;;;;;;;;;;;;3.50;59.36;98943.50;4413259;32;19993;-90
2021/11/30 02:07:46;;;;;;;;;;;;;;;3.38;59.36;98951.44;4412653;32;26007;-89
2021/11/30 02:10:13;;;;;;;;;;;;;;;3.47;59.37;98941.00;4412106;32;29481;-89
2021/11/30 02:12:38;;;;;;;;;;;;;;;3.38;59.36;98947.16;4412605;32;19961;-87
2021/11/30 02:15:04;;;;;;;;;;;;;;;3.48;59.37;98947.84;4412701;32;20254;-88
2021/11/30 02:17:30;;;;;;;;;;;;;;;3.45;59.36;98960.75;4412994;32;19986;-89
2021/11/30 02:19:58;;;;;;;;;;;;;;;3.29;59.35;98952.41;4412784;32;20000;-89
2021/11/30 02:22:23;;;;;;;;;;;;;;;3.45;59.37;98959.91;4413259;32;19994;-89
2021/11/30 02:24:49;;;;;;;;;;;;;;;3.31;59.35;98962.69;4413262;32;20017;-89
2021/11/30 02:27:14;;;;;;;;;;;;;;;3.29;59.35;98962.72;4412847;32;20013;-89
2021/11/30 02:29:39;;;;;;;;;;;;;;;3.20;59.35;98960.28;4413331;32;20001;-88
2021/11/30 02:32:05;;;;;;;;;;;;;;;3.21;59.35;98959.41;4412554;32;20553;-89
2021/11/30 02:34:30;;;;;;;;;;;;;;;3.14;59.35;98956.97;4412904;32;20305;-89
2021/11/30 02:37:03;;;;;;;;;;;;;;;3.16;59.34;98966.34;4412754;32;20349;-88
2021/11/30 02:39:29;;;;;;;;;;;;;;;3.09;59.34;98977.59;4414186;32;20002;-89
2021/11/30 02:41:54;;;;;;;;;;;;;;;3.13;59.35;98971.53;4412740;32;19997;-87
2021/11/30 02:44:20;;;;;;;;;;;;;;;2.96;59.34;98973.50;4412833;32;19998;-89
2021/11/30 02:46:46;;;;;;;;;;;;;;;2.99;59.34;98976.03;4412773;32;20001;-89
2021/11/30 02:49:12;;;;;;;;;;;;;;;3.04;59.34;98979.37;4412827;32;19973;-88
2021/11/30 02:51:40;;;;;;;;;;;;;;;3.03;59.35;98982.81;4412492;32;20027;-89
2021/11/30 02:54:05;;;;;;;;;;;;;;;3.10;59.35;98981.88;4425669;32;19997;-88
2021/11/30 02:56:31;;;;;;;;;;;;;;;3.11;59.35;98990.44;4412316;32;20372;-88
2021/11/30 02:58:56;;;;;;;;;;;;;;;3.12;59.35;98992.12;4409661;32;20053;-87
2021/11/30 03:01:21;;;;;;;;;;;;;;;3.08;59.34;98999.06;4409963;32;20036;-88
2021/11/30 03:03:47;;;;;;;;;;;;;;;3.14;59.35;99003.25;4409861;32;20556;-87
2021/11/30 03:06:12;;;;;;;;;;;;;;;3.26;59.36;99009.06;4409721;32;20083;-89
2021/11/30 03:08:40;;;;;;;;;;;;;;;3.20;59.35;99004.00;4409866;32;20018;-89
2021/11/30 03:11:06;;;;;;;;;;;;;;;3.25;59.36;99001.34;4397572;32;19986;-89
2021/11/30 03:13:31;;;;;;;;;;;;;;;3.36;59.36;99008.06;4410058;32;20031;-89
2021/11/30 03:15:57;;;;;;;;;;;;;;;3.43;59.36;99010.53;4409747;32;24303;-89
2021/11/30 03:18:23;;;;;;;;;;;;;;;3.39;59.37;99005.44;4410032;32;19974;-89
2021/11/30 03:20:48;;;;;;;;;;;;;;;3.27;59.36;99000.47;4410126;32;20040;-88
2021/11/30 03:23:13;;;;;;;;;;;;;;;3.20;59.35;99003.16;4409441;32;20058;-88
2021/11/30 03:25:41;;;;;;;;;;;;;;;3.26;59.36;98993.63;4409710;32;20012;-88
2021/11/30 03:28:06;;;;;;;;;;;;;;;3.07;59.35;98994.75;4410848;32;19997;-88
2021/11/30 03:30:31;;;;;;;;;;;;;;;3.12;59.35;98990.41;4409785;32;20022;-87
2021/11/30 03:35:41;;;;;;;;;;;;;;;3.04;59.34;99003.34;4399441;32;20048;-88
2021/11/30 03:38:06;;;;;;;;;;;;;;;3.06;59.34;99005.91;4410118;32;19986;-88
2021/11/30 03:40:31;;;;;;;;;;;;;;;2.94;59.33;99014.66;4409913;32;19993;-90
2021/11/30 03:42:57;;;;;;;;;;;;;;;3.00;59.34;99019.69;4411486;32;20029;-89
2021/11/30 03:45:22;;;;;;;;;;;;;;;3.02;59.34;99022.25;4409926;32;25430;-88
2021/11/30 03:47:47;;;;;;;;;;;;;;;2.88;59.34;99021.59;4384398;32;20307;-88
2021/11/30 03:50:12;;;;;;;;;;;;;;;2.99;59.34;99017.16;4409756;32;20287;-88
2021/11/30 03:52:38;;;;;;;;;;;;;;;2.98;59.34;99023.16;4409454;32;20001;-88
2021/11/30 03:55:03;;;;;;;;;;;;;;;2.73;59.33;99031.19;4409672;32;19994;-88
2021/11/30 03:57:29;;;;;;;;;;;;;;;2.80;59.32;99028.53;4415622;32;20016;-87
2021/11/30 03:59:54;;;;;;;;;;;;;;;2.86;59.33;99026.75;4412294;32;23397;-89
2021/11/30 04:02:19;;;;;;;;;;;;;;;2.91;59.34;99026.69;4413008;32;19982;-88
2021/11/30 04:04:46;;;;;;;;;;;;;;;2.86;59.33;99019.03;4412392;32;20039;-88
2021/11/30 04:07:12;;;;;;;;;;;;;;;2.69;59.32;99026.97;4411866;32;19982;-88
2021/11/30 04:09:37;;;;;;;;;;;;;;;2.75;59.33;99020.88;4412232;32;20039;-88
2021/11/30 04:12:04;;;;;;;;;;;;;;;2.80;59.32;99018.25;4411943;32;20014;-90
2021/11/30 04:14:29;;;;;;;;;;;;;;;2.70;59.32;99023.50;4412588;32;20012;-89
2021/11/30 04:16:55;;;;;;;;;;;;;;;2.67;59.32;99015.84;4412161;32;21507;-88
2021/11/30 04:19:20;;;;;;;;;;;;;;;2.81;59.33;99018.22;4412369;32;19992;-89
2021/11/30 04:21:45;;;;;;;;;;;;;;;2.78;59.32;99015.69;4412118;32;20353;-89
2021/11/30 04:24:11;;;;;;;;;;;;;;;2.72;59.32;99023.50;4411978;32;21187;-89
2021/11/30 04:26:36;;;;;;;;;;;;;;;2.74;59.33;99037.16;4412305;32;19989;-90
2021/11/30 04:29:01;;;;;;;;;;;;;;;2.73;59.33;99036.31;4411548;32;25789;-88
2021/11/30 04:31:27;;;;;;;;;;;;;;;2.57;59.31;99041.66;4411997;32;20002;-88
2021/11/30 04:33:52;;;;;;;;;;;;;;;2.59;59.32;99037.34;4413592;32;20342;-89
2021/11/30 04:36:18;;;;;;;;;;;;;;;2.59;59.32;99039.91;4412049;32;20250;-89
2021/11/30 04:38:43;;;;;;;;;;;;;;;2.59;59.32;99040.75;4411875;32;20009;-87
2021/11/30 04:41:08;;;;;;;;;;;;;;;2.69;59.33;99038.94;4411140;32;20013;-86
2021/11/30 04:43:36;;;;;;;;;;;;;;;2.60;59.32;99046.75;4411460;32;20008;-86
2021/11/30 04:46:08;;;;;;;;;;;;;;;2.56;59.32;99048.50;4411783;32;19996;-86
2021/11/30 04:48:35;;;;;;;;;;;;;;;2.58;59.32;99053.63;4412419;32;19982;-86
2021/11/30 04:51:02;;;;;;;;;;;;;;;2.63;59.32;99057.00;4411958;32;20012;-86
2021/11/30 04:53:28;;;;;;;;;;;;;;;2.52;59.31;99049.41;4411926;32;20012;-85
2021/11/30 04:55:53;;;;;;;;;;;;;;;2.61;59.32;99054.47;4411922;32;20390;-87
2021/11/30 04:58:19;;;;;;;;;;;;;;;2.57;59.31;99057.06;4411783;32;19978;-87
2021/11/30 05:00:44;;;;;;;;;;;;;;;2.67;59.32;99046.69;4411618;32;20282;-86
2021/11/30 05:03:10;;;;;;;;;;;;;;;2.71;59.32;99057.78;4411743;32;20051;-88
2021/11/30 05:05:35;;;;;;;;;;;;;;;2.41;59.30;99062.38;4411829;32;19988;-86
2021/11/30 05:08:01;;;;;;;;;;;;;;;2.39;59.31;99078.69;4411630;32;19992;-87
2021/11/30 05:10:26;;;;;;;;;;;;;;;2.62;59.32;99076.72;4411773;32;19990;-86
2021/11/30 05:12:51;;;;;;;;;;;;;;;2.62;59.32;99081.84;4411641;32;20031;-86
2021/11/30 05:15:16;;;;;;;;;;;;;;;2.73;59.33;99082.56;4411503;32;19981;-86
2021/11/30 05:17:42;;;;;;;;;;;;;;;2.84;59.33;99086.72;4410611;32;20515;-86
2021/11/30 05:20:07;;;;;;;;;;;;;;;2.56;59.32;99101.59;4410682;32;20286;-86
2021/11/30 05:22:32;;;;;;;;;;;;;;;2.75;59.33;99083.41;4411400;32;20020;-85
2021/11/30 05:24:58;;;;;;;;;;;;;;;2.84;59.33;99092.75;4411465;32;20251;-86
2021/11/30 05:27:23;;;;;;;;;;;;;;;2.89;59.34;99101.25;4411242;32;19997;-86
2021/11/30 05:29:48;;;;;;;;;;;;;;;2.78;59.32;99110.78;4411335;32;20013;-86
2021/11/30 05:32:13;;;;;;;;;;;;;;;2.75;59.33;99108.25;4411501;32;20236;-87
2021/11/30 05:34:39;;;;;;;;;;;;;;;2.75;59.33;99115.97;4411239;32;19996;-87
2021/11/30 05:37:04;;;;;;;;;;;;;;;2.83;59.33;99116.72;4411335;32;20002;-87
2021/11/30 05:39:29;;;;;;;;;;;;;;;2.98;59.34;99123.44;4411515;32;19997;-87
2021/11/30 05:41:54;;;;;;;;;;;;;;;3.01;59.34;99121.66;4411958;32;20360;-92
2021/11/30 05:44:20;;;;;;;;;;;;;;;3.07;59.35;99123.31;4411539;32;20008;-93
2021/11/30 05:46:46;;;;;;;;;;;;;;;3.22;59.35;99133.41;4411664;32;19992;-90
2021/11/30 05:49:12;;;;;;;;;;;;;;;3.22;59.35;99130.84;4411782;32;20002;-90
2021/11/30 05:51:37;;;;;;;;;;;;;;;3.47;59.37;99135.69;4412538;32;20007;-90
2021/11/30 05:54:03;;;;;;;;;;;;;;;3.70;59.38;99141.34;4415729;32;19985;-89
2021/11/30 05:56:31;;;;;;;;;;;;;;;3.66;59.38;99144.84;4418002;32;20026;-92
2021/11/30 05:58:57;;;;;;;;;;;;;;;3.64;59.38;99144.88;4413763;32;20608;-91
2021/11/30 06:01:27;;;;;;;;;;;;;;;3.45;59.36;99150.28;4398870;32;20028;-91
2021/11/30 06:03:58;;;;;;;;;;;;;;;3.27;59.36;99156.50;4399003;32;19970;-91
2021/11/30 06:06:23;;;;;;;;;;;;;;;3.39;59.37;99158.94;4410198;32;20004;-91
2021/11/30 06:08:48;;;;;;;;;;;;;;;3.52;59.37;99149.31;4408581;32;20034;-89
2021/11/30 06:11:14;;;;;;;;;;;;;;;3.56;59.37;99162.16;4396521;32;20024;-91
2021/11/30 06:13:39;;;;;;;;;;;;;;;3.79;59.39;99153.28;4411238;32;19970;-90
2021/11/30 06:16:05;;;;;;;;;;;;;;;3.69;59.38;99157.69;4408896;32;22664;-90
2021/11/30 06:18:30;;;;;;;;;;;;;;;3.75;59.38;99152.44;4409639;32;20255;-91
2021/11/30 06:20:57;;;;;;;;;;;;;;;3.96;59.39;99156.44;4409174;32;20028;-90
2021/11/30 06:23:22;;;;;;;;;;;;;;;3.81;59.38;99165.25;4408656;32;20012;-90
2021/11/30 06:25:47;;;;;;;;;;;;;;;3.98;59.40;99163.25;4410142;32;19979;-90
2021/11/30 06:28:13;;;;;;;;;;;;;;;4.01;59.40;99164.94;4408346;32;29092;-91
2021/11/30 06:30:38;;;;;;;;;;;;;;;4.26;59.41;99165.44;4409907;32;19990;-92
2021/11/30 06:33:03;;;;;;;;;;;;;;;4.10;59.40;99169.97;4413142;32;20000;-92
2021/11/30 06:35:28;;;;;;;;;;;;;;;4.28;59.42;99174.84;4409861;32;27454;-92
2021/11/30 06:37:55;;;;;;;;;;;;;;;4.35;59.42;99175.59;4410679;32;19986;-91
2021/11/30 06:40:20;;;;;;;;;;;;;;;4.37;59.42;99176.41;4410283;32;20006;-93
2021/11/30 06:42:45;;;;;;;;;;;;;;;4.44;59.43;99184.87;4410296;32;30005;-92
2021/11/30 06:45:10;;;;;;;;;;;;;;;4.63;59.43;99184.56;4410869;32;20028;-92
2021/11/30 06:47:36;;;;;;;;;;;;;;;4.71;59.43;99186.97;4410761;32;20259;-92
2021/11/30 06:50:02;;;;;;;;;;;;;;;4.63;59.43;99186.28;4410597;32;19994;-92
2021/11/30 06:52:27;;;;;;;;;;;;;;;4.82;59.45;99184.22;4412477;32;19986;-93
2021/11/30 06:54:54;;;;;;;;;;;;;;;4.75;59.44;99188.66;4410516;32;20009;-91
2021/11/30 06:57:20;;;;;;;;;;;;;;;5.05;59.46;99194.97;4415935;32;19994;-88
2021/11/30 06:59:45;;;;;;;;;;;;;;;4.88;59.45;99200.44;4413247;32;20028;-90
2021/11/30 07:02:12;;;;;;;;;;;;;;;4.65;59.44;99199.13;4413252;32;19978;-91
2021/11/30 07:04:41;;;;;;;;;;;;;;;4.69;59.44;99203.34;4413469;32;19954;-92
2021/11/30 07:12:48;;;;;;;;;;;;;;;5.03;59.45;99206.22;4416954;32;19990;-90
2021/11/30 07:15:10;;;;;;;;;;;;;;;4.93;59.45;99202.94;4417830;32;19986;-93
2021/11/30 07:17:37;;;;;;;;;;;;;;;4.95;59.46;99206.31;4412975;32;20250;-92
2021/11/30 07:20:04;;;;;;;;;;;;;;;4.98;59.45;99208.87;4413568;32;19997;-92
2021/11/30 07:22:29;;;;;;;;;;;;;;;5.21;59.46;99205.88;4413096;32;20687;-90
2021/11/30 07:24:54;;;;;;;;;;;;;;;5.36;59.47;99209.88;4412499;32;20005;-90
2021/11/30 07:27:20;;;;;;;;;;;;;;;5.45;59.48;99207.13;4412906;32;20286;-92
2021/11/30 07:29:45;;;;;;;;;;;;;;;5.59;59.49;99205.09;4413470;32;20011;-92
2021/11/30 07:32:10;;;;;;;;;;;;;;;5.60;59.48;99206.81;4415207;32;20035;-92
2021/11/30 07:34:36;;;;;;;;;;;;;;;5.58;59.49;99203.41;4412453;32;20001;-94
2021/11/30 07:37:01;;;;;;;;;;;;;;;5.55;59.49;99206.91;4412537;32;19982;-91
2021/11/30 07:39:26;;;;;;;;;;;;;;;5.46;59.48;99204.50;4412467;32;19990;-92
2021/11/30 07:41:52;;;;;;;;;;;;;;;5.55;59.49;99200.87;4411718;32;19986;-93
2021/11/30 07:44:17;;;;;;;;;;;;;;;5.45;59.48;99200.25;4412505;32;19990;-92
2021/11/30 07:46:42;;;;;;;;;;;;;;;5.60;59.48;99203.38;4413254;32;20009;-91
2021/11/30 07:49:07;;;;;;;;;;;;;;;5.63;59.49;99193.81;4412770;32;20033;-92
2021/11/30 07:51:33;;;;;;;;;;;;;;;5.63;59.49;99198.13;4414604;32;20013;-91
2021/11/30 07:53:58;;;;;;;;;;;;;;;5.59;59.48;99191.34;4412990;32;20232;-92
2021/11/30 07:56:24;;;;;;;;;;;;;;;5.58;59.48;99195.66;4412894;32;19996;-93
2021/11/30 07:58:49;;;;;;;;;;;;;;;5.70;59.49;99192.84;4410339;32;19998;-93
2021/11/30 08:01:16;;;;;;;;;;;;;;;5.67;59.49;99198.03;4410572;32;19977;-92
2021/11/30 08:03:41;;;;;;;;;;;;;;;5.48;59.48;99200.16;4410595;32;20001;-92
2021/11/30 08:06:06;;;;;;;;;;;;;;;5.60;59.48;99198.22;4409970;32;20393;-93
2021/11/30 08:08:32;;;;;;;;;;;;;;;5.61;59.49;99198.16;4408769;32;19989;-93
2021/11/30 08:10:57;;;;;;;;;;;;;;;5.69;59.49;99204.03;4408886;32;20000;-92
2021/11/30 08:13:23;;;;;;;;;;;;;;;5.97;59.50;99198.31;4410285;32;19993;-93
2021/11/30 08:15:48;;;;;;;;;;;;;;;6.09;59.52;99196.28;4408623;32;20034;-92
2021/11/30 08:18:13;;;;;;;;;;;;;;;6.33;59.53;99194.88;4409876;32;20034;-93
2021/11/30 08:20:38;;;;;;;;;;;;;;;6.32;59.53;99195.75;4408949;32;20012;-91
2021/11/30 08:23:04;;;;;;;;;;;;;;;6.34;59.52;99201.75;4408696;32;20012;-93
2021/11/30 08:25:29;;;;;;;;;;;;;;;6.32;59.53;99200.94;4408831;32;20001;-93
2021/11/30 08:27:56;;;;;;;;;;;;;;;6.29;59.53;99210.50;4408579;32;19990;-92
2021/11/30 08:30:21;;;;;;;;;;;;;;;6.49;59.54;99202.28;4408736;32;19990;-93
2021/11/30 08:32:46;;;;;;;;;;;;;;;6.55;59.54;99202.97;4403126;32;19962;-92
2021/11/30 08:35:12;;;;;;;;;;;;;;;6.69;59.55;99203.47;4421928;32;19969;-93
2021/11/30 08:37:37;;;;;;;;;;;;;;;6.86;59.55;99200.47;4408986;32;20048;-92
2021/11/30 08:40:03;;;;;;;;;;;;;;;6.91;59.56;99205.53;4408672;32;19973;-94
2021/11/30 08:42:28;;;;;;;;;;;;;;;6.77;59.55;99203.28;4408581;32;19977;-93
2021/11/30 08:44:54;;;;;;;;;;;;;;;6.83;59.56;99202.25;4408343;32;20004;-93
2021/11/30 08:50:22;;;;;;;;;;;;;;;6.90;59.56;99193.47;4410388;32;20028;-93
2021/11/30 08:52:48;;;;;;;;;;;;;;;7.08;59.57;99191.22;4408667;32;20327;-92
2021/11/30 08:55:13;;;;;;;;;;;;;;;7.08;59.57;99186.06;4409654;32;19993;-94
2021/11/30 08:57:39;;;;;;;;;;;;;;;6.72;59.54;99193.06;4416840;32;20007;-93
2021/11/30 09:00:06;;;;;;;;;;;;;;;6.72;59.56;99185.28;4416794;32;19985;-93
2021/11/30 09:02:32;;;;;;;;;;;;;;;6.76;59.55;99181.75;4425013;32;19954;-90
2021/11/30 09:04:57;;;;;;;;;;;;;;;6.67;59.55;99183.72;4411704;32;20013;-93
2021/11/30 09:07:22;;;;;;;;;;;;;;;6.54;59.54;99188.34;4412102;32;23323;-93
2021/11/30 09:09:48;;;;;;;;;;;;;;;6.64;59.54;99181.22;4410714;32;20020;-95
2021/11/30 09:12:13;;;;;;;;;;;;;;;6.58;59.55;99174.44;4410925;32;20005;-93
2021/11/30 09:14:39;;;;;;;;;;;;;;;6.52;59.54;99173.75;4410900;32;20007;-95
2021/11/30 09:17:04;;;;;;;;;;;;;;;6.14;59.52;99170.34;4410862;32;19999;-94
2021/11/30 09:19:30;;;;;;;;;;;;;;;5.94;59.50;99157.91;4411548;32;20031;-94
2021/11/30 09:21:56;;;;;;;;;;;;;;;5.48;59.48;99161.44;4412706;32;20624;-93
2021/11/30 09:24:21;;;;;;;;;;;;;;;5.30;59.47;99154.06;4417862;32;19986;-93
2021/11/30 09:26:48;;;;;;;;;;;;;;;5.31;59.46;99168.69;4411121;32;19993;-94
2021/11/30 09:29:13;;;;;;;;;;;;;;;5.35;59.47;99151.41;4411306;32;20776;-93
2021/11/30 09:31:41;;;;;;;;;;;;;;;5.40;59.48;99159.88;4410935;32;19978;-95
2021/11/30 09:34:07;;;;;;;;;;;;;;;5.55;59.49;99154.41;4411627;32;19961;-95
2021/11/30 09:36:32;;;;;;;;;;;;;;;5.45;59.48;99153.78;4413043;32;20011;-93
2021/11/30 09:38:58;;;;;;;;;;;;;;;5.62;59.49;99144.81;4418081;32;20262;-95
2021/11/30 09:41:23;;;;;;;;;;;;;;;5.84;59.51;99141.72;4413055;32;20009;-94
2021/11/30 09:43:49;;;;;;;;;;;;;;;5.76;59.50;99135.88;4412087;32;20408;-94
2021/11/30 09:46:14;;;;;;;;;;;;;;;5.65;59.49;99139.56;4413053;32;20005;-95
2021/11/30 09:48:40;;;;;;;;;;;;;;;5.63;59.49;99137.03;4410822;32;19989;-95
2021/11/30 09:51:06;;;;;;;;;;;;;;;5.65;59.49;99130.09;4410974;32;19989;-95
2021/11/30 09:53:31;;;;;;;;;;;;;;;5.66;59.49;99142.13;4412710;32;20001;-93
2021/11/30 09:55:56;;;;;;;;;;;;;;;5.71;59.50;99137.72;4413063;32;19981;-94
2021/11/30 09:58:22;;;;;;;;;;;;;;;5.84;59.51;99140.88;4408129;32;20267;-94
2021/11/30 10:00:47;;;;;;;;;;;;;;;6.10;59.51;99128.22;4395830;32;20333;-95
2021/11/30 10:03:13;;;;;;;;;;;;;;;6.24;59.52;99116.72;4408744;32;20013;-94
2021/11/30 10:05:39;;;;;;;;;;;;;;;6.23;59.53;99115.03;4411696;32;20009;-96
2021/11/30 10:08:05;;;;;;;;;;;;;;;6.31;59.52;99121.69;4412248;32;19970;-95
2021/11/30 10:10:32;;;;;;;;;;;;;;;6.32;59.53;99112.19;4417362;32;19965;-95
2021/11/30 10:13:04;;;;;;;;;;;;;;;6.46;59.54;99113.56;4410421;32;19994;-95
2021/11/30 10:15:48;;;;;;;;;;;;;;;6.60;59.55;99110.59;4410595;32;20022;-95
2021/11/30 10:18:17;;;;;;;;;;;;;;;6.61;59.55;99099.38;4410290;32;19974;-96
2021/11/30 10:20:43;;;;;;;;;;;;;;;6.60;59.54;99110.59;4410147;32;20033;-96
2021/11/30 10:23:11;;;;;;;;;;;;;;;6.67;59.55;99098.38;4410512;32;20037;-96
2021/11/30 10:25:39;;;;;;;;;;;;;;;6.72;59.56;99079.25;4416326;32;19977;-95
2021/11/30 10:28:04;;;;;;;;;;;;;;;6.52;59.54;99094.44;4414435;32;19974;-94
2021/11/30 10:30:30;;;;;;;;;;;;;;;6.61;59.55;99083.84;4410265;32;19990;-94
2021/11/30 10:32:56;;;;;;;;;;;;;;;6.74;59.56;99061.09;4410031;32;20275;-94
2021/11/30 10:35:22;;;;;;;;;;;;;;;6.73;59.56;99062.00;4410475;32;19994;-95
2021/11/30 10:37:48;;;;;;;;;;;;;;;6.53;59.54;99065.13;4385321;32;19984;-96
2021/11/30 10:40:23;;;;;;;;;;;;;;;6.47;59.53;99076.47;4411313;32;20075;-93
2021/11/30 10:42:52;;;;;;;;;;;;;;;6.46;59.54;99084.28;4415109;32;19962;-95
2021/11/30 10:45:26;;;;;;;;;;;;;;;6.50;59.53;99082.44;4412054;32;20004;-95
2021/11/30 10:47:52;;;;;;;;;;;;;;;6.68;59.55;99079.37;4409670;32;19981;-96
2021/11/30 10:50:22;;;;;;;;;;;;;;;7.06;59.57;99068.81;4409550;32;20005;-95
2021/11/30 10:52:49;;;;;;;;;;;;;;;7.36;59.59;99069.66;4410375;32;19986;-95
2021/11/30 10:55:16;;;;;;;;;;;;;;;7.37;59.59;99068.78;4410237;32;19998;-95
2021/11/30 10:57:41;;;;;;;;;;;;;;;7.45;59.59;99059.91;4420440;32;19964;-95
2021/11/30 11:00:10;;;;;;;;;;;;;;;7.29;59.58;99055.19;4412992;32;19986;-96
2021/11/30 11:03:11;;;;;;;;;;;;;;;7.14;59.57;99063.44;4412707;32;20017;-95
2021/11/30 11:05:35;;;;;;;;;;;;;;;6.94;59.55;99056.22;4415850;32;20017;-94
2021/11/30 11:08:14;;;;;;;;;;;;;;;6.91;59.56;99055.47;4412541;32;19978;-95
2021/11/30 11:10:49;;;;;;;;;;;;;;;7.01;59.57;99049.13;4412713;32;19977;-94
2021/11/30 11:13:18;;;;;;;;;;;;;;;7.23;59.58;99052.78;4412612;32;19986;-94
2021/11/30 11:15:43;;;;;;;;;;;;;;;7.19;59.58;99047.75;4414608;32;19998;-95
2021/11/30 11:18:22;;;;;;;;;;;;;;;7.21;59.58;99044.22;4413182;32;20259;-95
2021/11/30 11:20:47;;;;;;;;;;;;;;;7.23;59.58;99052.78;4413343;32;20004;-95
2021/11/30 11:23:19;;;;;;;;;;;;;;;7.39;59.58;99051.44;4412685;32;19998;-95
2021/11/30 11:25:44;;;;;;;;;;;;;;;7.30;59.58;99050.88;4414437;32;20035;-95
2021/11/30 11:28:10;;;;;;;;;;;;;;;7.21;59.58;99043.38;4411972;32;20319;-93
2021/11/30 11:30:35;;;;;;;;;;;;;;;7.15;59.57;99039.25;4412320;32;20031;-96
2021/11/30 11:33:08;;;;;;;;;;;;;;;6.95;59.57;99038.97;4411773;32;19986;-95
2021/11/30 11:35:33;;;;;;;;;;;;;;;6.79;59.55;99035.97;4412237;32;19962;-95
2021/11/30 11:38:00;;;;;;;;;;;;;;;6.81;59.56;99034.16;4412195;32;19992;-95
2021/11/30 11:40:25;;;;;;;;;;;;;;;6.65;59.54;99038.09;4411876;32;19986;-95
2021/11/30 11:42:51;;;;;;;;;;;;;;;6.72;59.55;99018.94;4412343;32;20005;-95
2021/11/30 11:45:16;;;;;;;;;;;;;;;6.82;59.56;99017.75;4418819;32;19993;-95
2021/11/30 11:47:41;;;;;;;;;;;;;;;6.82;59.56;99030.69;4413990;32;20026;-95
2021/11/30 11:50:10;;;;;;;;;;;;;;;6.89;59.56;99024.47;4413193;32;20013;-96
2021/11/30 11:52:38;;;;;;;;;;;;;;;6.89;59.56;99026.22;4412882;32;19994;-95
2021/11/30 11:55:14;;;;;;;;;;;;;;;6.97;59.56;99025.09;4412334;32;20059;-95
2021/11/30 11:57:40;;;;;;;;;;;;;;;6.90;59.56;99022.72;4409638;32;20009;-95
2021/11/30 12:00:16;;;;;;;;;;;;;;;6.92;59.56;99031.28;4411425;32;20038;-95
2021/11/30 12:02:50;;;;;;;;;;;;;;;7.12;59.58;99025.56;4413648;32;19994;-95
2021/11/30 12:05:15;;;;;;;;;;;;;;;7.20;59.58;99011.47;4423016;32;20000;-93
2021/11/30 12:08:01;;;;;;;;;;;;;;;7.21;59.58;99004.56;4415937;32;19986;-94
2021/11/30 12:10:28;;;;;;;;;;;;;;;7.06;59.57;99014.47;4410802;32;20024;-95
2021/11/30 12:12:53;;;;;;;;;;;;;;;6.92;59.56;99010.59;4409855;32;20002;-95
2021/11/30 12:15:18;;;;;;;;;;;;;;;6.95;59.55;99008.78;4409802;32;19998;-94
2021/11/30 12:17:44;;;;;;;;;;;;;;;6.89;59.56;99011.53;4411860;32;20029;-95
2021/11/30 12:20:10;;;;;;;;;;;;;;;6.82;59.56;99006.56;4410560;32;20014;-95
2021/11/30 12:22:49;;;;;;;;;;;;;;;6.98;59.57;99003.50;4410659;32;20013;-94
2021/11/30 12:25:21;;;;;;;;;;;;;;;6.91;59.56;99004.59;4410122;32;19966;-96
2021/11/30 12:27:46;;;;;;;;;;;;;;;6.88;59.56;98993.47;4408873;32;19996;-95
2021/11/30 12:30:31;;;;;;;;;;;;;;;7.07;59.57;98995.44;4410126;32;20002;-95
2021/11/30 12:32:56;;;;;;;;;;;;;;;7.05;59.57;98988.63;4420121;32;19975;-93
2021/11/30 12:35:22;;;;;;;;;;;;;;;7.18;59.58;98984.78;4417544;32;20347;-95
2021/11/30 12:37:50;;;;;;;;;;;;;;;7.15;59.57;98978.88;4409811;32;19982;-95
2021/11/30 12:40:16;;;;;;;;;;;;;;;7.15;59.57;98977.13;4409396;32;20264;-96
2021/11/30 12:42:41;;;;;;;;;;;;;;;7.34;59.59;98967.06;4409299;32;20013;-94
2021/11/30 12:45:07;;;;;;;;;;;;;;;7.22;59.58;98968.28;4409051;32;20508;-95
2021/11/30 12:47:32;;;;;;;;;;;;;;;7.35;59.59;98958.41;4410449;32;19974;-96
2021/11/30 12:49:58;;;;;;;;;;;;;;;7.30;59.58;98958.50;4414655;32;20012;-94
2021/11/30 12:52:24;;;;;;;;;;;;;;;7.23;59.58;98954.44;4412659;32;20331;-95
2021/11/30 12:55:13;;;;;;;;;;;;;;;7.34;59.59;98948.94;4410816;32;20339;-95
2021/11/30 12:57:41;;;;;;;;;;;;;;;7.27;59.58;98943.09;4360763;32;1347710;-95
2021/11/30 13:00:09;;;;;;;;;;;;;;;7.24;59.58;98942.34;4424655;32;19977;-95
2021/11/30 13:02:39;;;;;;;;;;;;;;;7.36;59.59;98936.78;4411477;32;20000;-95
2021/11/30 13:05:08;;;;;;;;;;;;;;;7.42;59.59;98926.22;4409517;32;20009;-95
2021/11/30 13:08:01;;;;;;;;;;;;;;;7.65;59.60;98925.47;4412411;32;19993;-96